Cherry Capital Airport Traverse City US
ICAO: KTVC
IATA: TVC
Category: Medium
Scheduled Services: Yes

Elevation: 624 ft
TransAlt. 18000 ft.

Airport Communications:
ATIS:119.175
MINNEAPOLIS CNTR:132.9
CTAF:124.2
GND:121.8
USCG TRAVERSE CITY:38.18
LANSING RDO:122.2
TWR:124.2
UNICOM:122.95

KTVC Zoom In..

If you have problems with the map follow the link
https://www.worldairports.se/pages/airport.php?
ICAO=KTVC

Runways:

(A) RW 10 length 6500 ft width 150 ft
---- / hdg 99

(B) RW 18 length 5378 ft width 150 ft
---- / hdg 185

(C) RW 28 length 6500 ft width 150 ft
ILS 110.70 / hdg 279

(D) RW 36 length 5378 ft width 150 ft
---- / hdg 5

Location; KTVC
Day. 14 / Time. 14.53 Zulu
* Altimeter: 29.65
* Temperature: 01° c. 33.8°f.
* Wind from: KTV° Speed C kn.
Dewpoint: -02° c.
Visibility: 5 Statute Miles.
Clouds: Broken 1400 ft.
Clouds: Overcast 2200 ft.
Conditions: Mist.

KTVC 141453Z 27004KT 5SM BR BKN014 OVC022 01/M02 A2965 RMK AO2 SLP047 T00061017 56007


Wind From KTV°
Speed C kn.

 
 
jpsmedia worldairports.se 2019   terms of use